Time;durP1;ratioP1;P1;durP2;ratioP2;P2;SDS_P1;SDS_P2;PMS_P1;PMS_P2;Temp;Humidity;BMP_temperature;BMP_pressure;BME280_temperature;BME280_humidity;BME280_pressure;Samples;Min_cycle;Max_cycle;Signal;HPM_P1;HPM_P2
2022/10/10 00:01:33;;;;;;;27.00;25.10;;;9.00;99.90;;;;;;5041599;28;20238;-78
2022/10/10 00:04:00;;;;;;;30.13;28.13;;;9.00;99.90;;;;;;5041216;28;20212;-79
2022/10/10 00:06:26;;;;;;;32.57;30.57;;;9.00;99.90;;;;;;5039429;28;20189;-79
2022/10/10 00:08:52;;;;;;;24.40;22.63;;;8.90;99.90;;;;;;5036275;28;20179;-79
2022/10/10 00:11:21;;;;;;;18.13;16.77;;;8.90;99.90;;;;;;5042404;28;20175;-78
2022/10/10 00:13:47;;;;;;;15.50;14.40;;;9.00;99.90;;;;;;5049992;28;20241;-78
2022/10/10 00:16:14;;;;;;;12.20;11.10;;;9.00;99.90;;;;;;5045231;28;20185;-77
2022/10/10 00:18:40;;;;;;;12.60;11.40;;;9.00;99.90;;;;;;5034463;28;20190;-77
2022/10/10 00:21:07;;;;;;;14.83;11.60;;;9.00;99.90;;;;;;5024342;28;20236;-79
2022/10/10 00:23:33;;;;;;;10.43;9.53;;;9.00;99.90;;;;;;5015329;28;20601;-78
2022/10/10 00:25:59;;;;;;;10.03;9.13;;;9.00;99.90;;;;;;5013823;28;20180;-78
2022/10/10 00:28:25;;;;;;;9.77;8.77;;;9.10;99.90;;;;;;5011708;28;20254;-78
2022/10/10 00:30:51;;;;;;;8.63;8.03;;;9.10;99.90;;;;;;5020539;28;20258;-78
2022/10/10 00:33:17;;;;;;;10.33;9.33;;;9.20;99.90;;;;;;5034198;28;20210;-77
2022/10/10 00:35:43;;;;;;;19.17;17.93;;;9.10;99.90;;;;;;5032868;28;20233;-78
2022/10/10 00:38:10;;;;;;;28.53;26.87;;;9.10;99.90;;;;;;5032284;28;20186;-78
2022/10/10 00:40:47;;;;;;;17.73;16.47;;;9.10;99.90;;;;;;5032470;28;20325;-78
2022/10/10 00:43:15;;;;;;;35.57;33.33;;;9.20;99.90;;;;;;5033465;28;20539;-78
2022/10/10 00:45:44;;;;;;;40.27;38.00;;;9.10;99.90;;;;;;5032721;28;20183;-77
2022/10/10 00:48:27;;;;;;;19.63;18.23;;;9.00;99.90;;;;;;5032070;28;20186;-78
2022/10/10 00:50:52;;;;;;;18.53;17.30;;;9.00;99.90;;;;;;5032638;28;20265;-78
2022/10/10 00:53:22;;;;;;;12.20;11.20;;;9.10;99.90;;;;;;5034140;28;20603;-78
2022/10/10 00:55:48;;;;;;;10.13;9.13;;;9.10;99.90;;;;;;5032280;28;20626;-78
2022/10/10 00:58:16;;;;;;;9.97;9.20;;;9.20;99.90;;;;;;5031510;28;20201;-78
2022/10/10 01:00:42;;;;;;;10.27;9.37;;;9.20;99.90;;;;;;5032129;28;20214;-78
2022/10/10 01:03:08;;;;;;;9.63;8.93;;;9.20;99.90;;;;;;5033547;28;20678;-78
2022/10/10 01:05:34;;;;;;;10.47;9.57;;;9.30;99.90;;;;;;5032733;28;20199;-78
2022/10/10 01:08:01;;;;;;;10.73;9.63;;;9.30;99.90;;;;;;5033248;28;20676;-78
2022/10/10 01:10:27;;;;;;;9.53;8.70;;;9.30;99.90;;;;;;5032253;28;20186;-78
2022/10/10 01:13:28;;;;;;;40.57;38.47;;;9.40;99.90;;;;;;5032498;28;20181;-78
2022/10/10 01:16:08;;;;;;;51.13;48.10;;;9.30;99.90;;;;;;5045234;28;20259;-78
2022/10/10 01:18:50;;;;;;;53.80;50.80;;;9.30;99.90;;;;;;5048855;28;20183;-78
2022/10/10 01:21:31;;;;;;;56.50;53.30;;;9.40;99.90;;;;;;5041127;28;20274;-79
2022/10/10 01:24:24;;;;;;;66.20;62.77;;;9.40;99.90;;;;;;5039685;28;20211;-78
2022/10/10 01:27:10;;;;;;;49.03;46.33;;;9.40;99.90;;;;;;5040428;28;20179;-79
2022/10/10 01:29:37;;;;;;;46.67;43.93;;;9.40;99.90;;;;;;5036655;28;20271;-79
2022/10/10 01:32:29;;;;;;;62.50;58.80;;;9.50;99.90;;;;;;5035872;28;20250;-78
2022/10/10 01:35:44;;;;;;;36.07;33.93;;;9.50;99.90;;;;;;5033488;28;20227;-79
2022/10/10 01:38:27;;;;;;;36.37;34.37;;;9.50;99.90;;;;;;5016750;28;20301;-78
2022/10/10 01:41:02;;;;;;;30.67;28.77;;;9.50;99.90;;;;;;5019068;28;20191;-78
2022/10/10 01:43:29;;;;;;;25.13;23.70;;;9.50;99.90;;;;;;5037947;28;20194;-78
2022/10/10 01:45:55;;;;;;;11.20;10.43;;;9.40;99.90;;;;;;5038497;28;20270;-78
2022/10/10 01:48:29;;;;;;;10.73;10.07;;;9.40;99.90;;;;;;5037910;28;20179;-78
2022/10/10 01:50:55;;;;;;;9.40;8.70;;;9.50;99.90;;;;;;5036796;28;20194;-78
2022/10/10 01:53:36;;;;;;;9.83;8.83;;;9.50;99.90;;;;;;5036915;28;20187;-78
2022/10/10 01:56:22;;;;;;;9.13;8.23;;;9.40;99.90;;;;;;5036059;28;20252;-78
2022/10/10 01:59:45;;;;;;;10.27;9.30;;;9.40;99.90;;;;;;5036708;28;20213;-78
2022/10/10 02:02:37;;;;;;;11.03;10.07;;;9.40;99.90;;;;;;5035964;28;20666;-78
2022/10/10 02:05:12;;;;;;;10.87;10.07;;;9.40;99.90;;;;;;5036287;28;20225;-79
2022/10/10 02:07:47;;;;;;;11.17;10.17;;;9.40;99.90;;;;;;5036117;28;20182;-78
2022/10/10 02:10:19;;;;;;;11.03;10.10;;;9.50;99.90;;;;;;5035904;28;20182;-78
2022/10/10 02:12:47;;;;;;;11.97;11.07;;;9.50;99.90;;;;;;5036278;28;20218;-79
2022/10/10 02:15:18;;;;;;;12.47;11.47;;;9.50;99.90;;;;;;5035122;28;20610;-79
2022/10/10 02:17:47;;;;;;;9.13;8.53;;;9.50;99.90;;;;;;5036508;28;20175;-78
2022/10/10 02:20:17;;;;;;;11.63;10.53;;;9.50;99.90;;;;;;5036390;28;20722;-78
2022/10/10 02:22:44;;;;;;;11.63;10.67;;;9.50;99.90;;;;;;5039442;28;20183;-77
2022/10/10 02:25:11;;;;;;;9.83;9.13;;;9.50;99.90;;;;;;5039151;28;20219;-76
2022/10/10 02:27:56;;;;;;;9.23;8.50;;;9.60;99.90;;;;;;5040087;28;20250;-76
2022/10/10 02:30:23;;;;;;;11.57;10.77;;;9.50;99.90;;;;;;5036080;28;20274;-78
2022/10/10 02:32:55;;;;;;;12.07;11.23;;;9.50;99.90;;;;;;5034981;28;20179;-78
2022/10/10 02:35:38;;;;;;;10.17;9.27;;;9.50;99.90;;;;;;5041688;28;20214;-76
2022/10/10 02:38:06;;;;;;;11.37;10.40;;;9.50;99.90;;;;;;5042979;28;20194;-78
2022/10/10 02:40:34;;;;;;;14.93;13.77;;;9.50;99.90;;;;;;5035177;28;20203;-79
2022/10/10 02:43:03;;;;;;;14.50;13.57;;;9.50;99.90;;;;;;5034685;28;20655;-79
2022/10/10 02:45:31;;;;;;;18.53;17.33;;;9.40;99.90;;;;;;5034427;28;20203;-78
2022/10/10 02:47:58;;;;;;;21.70;20.03;;;9.40;99.90;;;;;;5033298;28;20183;-78
2022/10/10 02:50:25;;;;;;;40.87;38.63;;;9.40;99.90;;;;;;5034038;28;20174;-78
2022/10/10 02:52:50;;;;;;;45.53;42.80;;;9.40;99.90;;;;;;5033086;28;20610;-79
2022/10/10 02:55:16;;;;;;;53.10;50.17;;;9.40;99.90;;;;;;5033532;28;20203;-78
2022/10/10 02:57:42;;;;;;;54.30;51.50;;;9.40;99.90;;;;;;5034068;28;20185;-79
2022/10/10 03:00:08;;;;;;;55.70;52.70;;;9.40;99.90;;;;;;5034133;28;20576;-79
2022/10/10 03:02:34;;;;;;;48.60;46.03;;;9.40;99.90;;;;;;5033892;28;20214;-78
2022/10/10 03:05:00;;;;;;;52.53;49.47;;;9.40;99.90;;;;;;5034766;28;20237;-76
2022/10/10 03:07:25;;;;;;;50.23;47.53;;;9.40;99.90;;;;;;5035776;28;20717;-77
2022/10/10 03:09:51;;;;;;;46.83;44.10;;;9.40;99.90;;;;;;5033392;28;20202;-78
2022/10/10 03:12:17;;;;;;;53.97;50.80;;;9.40;99.90;;;;;;5034397;28;20190;-78
2022/10/10 03:14:43;;;;;;;53.97;51.00;;;9.40;99.90;;;;;;5034085;28;20733;-78
2022/10/10 03:17:09;;;;;;;51.03;48.07;;;9.40;99.90;;;;;;5033941;28;20187;-78
2022/10/10 03:19:35;;;;;;;46.33;43.63;;;9.40;99.90;;;;;;5032910;28;20217;-79
2022/10/10 03:22:01;;;;;;;48.67;45.53;;;9.40;99.90;;;;;;5032617;28;20192;-78
2022/10/10 03:24:27;;;;;;;50.00;46.87;;;9.40;99.90;;;;;;5033697;28;20221;-78
2022/10/10 03:26:53;;;;;;;53.57;50.33;;;9.40;99.90;;;;;;5032297;28;20194;-78
2022/10/10 03:29:19;;;;;;;43.83;41.23;;;9.40;99.90;;;;;;5032195;28;20271;-77
2022/10/10 03:31:44;;;;;;;56.97;53.80;;;9.40;99.90;;;;;;5035040;28;20601;-77
2022/10/10 03:34:10;;;;;;;53.77;50.67;;;9.40;99.90;;;;;;5037722;28;20213;-77
2022/10/10 03:36:37;;;;;;;53.03;50.20;;;9.40;99.90;;;;;;5039228;28;20274;-78
2022/10/10 03:39:03;;;;;;;92.80;88.00;;;9.50;99.90;;;;;;5036400;28;20248;-77
2022/10/10 03:41:29;;;;;;;58.17;54.77;;;9.50;99.90;;;;;;5045127;28;20179;-77
2022/10/10 03:43:55;;;;;;;54.87;51.73;;;9.50;99.90;;;;;;5033567;28;20295;-79
2022/10/10 03:46:20;;;;;;;30.00;28.10;;;9.60;99.90;;;;;;5031547;28;20610;-78
2022/10/10 03:48:48;;;;;;;23.03;21.33;;;9.60;99.90;;;;;;5033351;28;20548;-79
2022/10/10 03:51:13;;;;;;;31.27;29.33;;;9.60;99.90;;;;;;5031368;28;20190;-70
2022/10/10 03:53:39;;;;;;;46.33;43.20;;;9.60;99.90;;;;;;5030496;28;20198;-70
2022/10/10 03:56:05;;;;;;;74.23;70.20;;;9.70;99.90;;;;;;5031786;28;20175;-70
2022/10/10 03:58:31;;;;;;;38.00;35.60;;;9.70;99.90;;;;;;5031575;28;20179;-70
2022/10/10 04:01:00;;;;;;;22.67;21.17;;;9.70;99.90;;;;;;5031900;28;20731;-70
2022/10/10 04:03:28;;;;;;;13.57;12.63;;;9.80;99.90;;;;;;5029916;28;20198;-70
2022/10/10 04:05:54;;;;;;;8.67;7.97;;;9.80;99.90;;;;;;5028942;28;20538;-72
2022/10/10 04:08:20;;;;;;;11.40;10.47;;;9.80;99.90;;;;;;5030617;28;20747;-72
2022/10/10 04:10:53;;;;;;;14.57;13.40;;;9.80;99.90;;;;;;5030285;28;20266;-72
2022/10/10 04:13:20;;;;;;;16.33;15.13;;;9.70;99.90;;;;;;5032701;28;20183;-72
2022/10/10 04:15:50;;;;;;;14.70;13.70;;;9.70;99.90;;;;;;5031074;28;20587;-71
2022/10/10 04:18:16;;;;;;;12.40;11.10;;;9.60;99.90;;;;;;5031017;28;20183;-72
2022/10/10 04:20:42;;;;;;;13.40;12.57;;;9.60;99.90;;;;;;5031317;28;20671;-71
2022/10/10 04:23:08;;;;;;;32.30;30.50;;;9.60;99.90;;;;;;5030731;28;20211;-71
2022/10/10 04:25:33;;;;;;;49.87;47.20;;;9.60;99.90;;;;;;5031239;28;20218;-71
2022/10/10 04:27:59;;;;;;;39.77;37.63;;;9.60;99.90;;;;;;5030788;28;20640;-72
2022/10/10 04:30:26;;;;;;;45.87;42.63;;;9.60;99.90;;;;;;5030804;28;20186;-72
2022/10/10 04:32:51;;;;;;;49.13;46.33;;;9.70;99.90;;;;;;5031020;28;20187;-72
2022/10/10 04:35:17;;;;;;;47.97;45.20;;;9.70;99.90;;;;;;5031701;28;20207;-72
2022/10/10 04:37:44;;;;;;;32.20;30.00;;;9.70;99.90;;;;;;5031029;28;20209;-72
2022/10/10 04:40:10;;;;;;;48.47;45.53;;;9.60;99.90;;;;;;5030531;28;20207;-71
2022/10/10 04:42:36;;;;;;;64.53;60.63;;;9.60;99.90;;;;;;5030665;28;20182;-72
2022/10/10 04:45:02;;;;;;;63.83;60.20;;;9.60;99.90;;;;;;5030661;28;20194;-72
2022/10/10 04:47:28;;;;;;;32.90;31.10;;;9.50;99.90;;;;;;5030244;28;20183;-72
2022/10/10 04:49:53;;;;;;;47.03;44.27;;;9.50;99.90;;;;;;5031208;28;20183;-74
2022/10/10 04:52:19;;;;;;;57.23;53.93;;;9.50;99.90;;;;;;5031464;28;20195;-73
2022/10/10 04:54:45;;;;;;;61.27;57.40;;;9.50;99.90;;;;;;5030913;28;20202;-73
2022/10/10 04:57:10;;;;;;;234.93;222.50;;;9.50;99.90;;;;;;5029324;28;20206;-72
2022/10/10 04:59:36;;;;;;;56.20;52.87;;;9.50;99.90;;;;;;5030355;28;20221;-73
2022/10/10 05:02:02;;;;;;;65.40;61.47;;;9.50;99.90;;;;;;5029186;28;20863;-72
2022/10/10 05:04:28;;;;;;;64.30;60.60;;;9.50;99.90;;;;;;5030256;28;20238;-73
2022/10/10 05:06:54;;;;;;;63.93;60.30;;;9.50;99.90;;;;;;5030001;28;20600;-72
2022/10/10 05:09:19;;;;;;;63.87;60.17;;;9.50;99.90;;;;;;5030630;28;20183;-72
2022/10/10 05:11:45;;;;;;;55.63;52.37;;;9.50;99.90;;;;;;5030303;28;20179;-73
2022/10/10 05:14:11;;;;;;;58.67;55.13;;;9.50;99.90;;;;;;5029688;28;20237;-73
2022/10/10 05:16:37;;;;;;;60.23;56.77;;;9.50;99.90;;;;;;5040733;28;20213;-72
2022/10/10 05:19:03;;;;;;;55.73;52.53;;;9.40;99.90;;;;;;5030050;28;20687;-72
2022/10/10 05:21:30;;;;;;;63.10;59.70;;;9.40;99.90;;;;;;5029174;28;20183;-73
2022/10/10 05:23:56;;;;;;;46.27;43.33;;;9.40;99.90;;;;;;5029256;28;20207;-73
2022/10/10 05:26:22;;;;;;;29.97;28.20;;;9.40;99.90;;;;;;5030103;28;20175;-73
2022/10/10 05:28:48;;;;;;;30.07;28.17;;;9.40;99.90;;;;;;5029283;28;20179;-72
2022/10/10 05:31:14;;;;;;;35.43;33.10;;;9.30;99.90;;;;;;5030298;28;20194;-72
2022/10/10 05:33:39;;;;;;;25.57;24.07;;;9.30;99.90;;;;;;5027968;28;20199;-71
2022/10/10 05:36:09;;;;;;;21.33;19.90;;;9.20;99.90;;;;;;5029156;28;20177;-72
2022/10/10 05:38:36;;;;;;;19.03;17.83;;;9.20;99.90;;;;;;5029724;28;20193;-72
2022/10/10 05:41:02;;;;;;;14.47;13.27;;;9.20;99.90;;;;;;5030580;28;20274;-72
2022/10/10 05:43:28;;;;;;;15.53;12.97;;;9.10;99.90;;;;;;5028871;28;20265;-72
2022/10/10 05:45:54;;;;;;;13.47;12.27;;;9.10;99.90;;;;;;5030628;28;20182;-72
2022/10/10 05:48:20;;;;;;;12.67;11.37;;;9.10;99.90;;;;;;5029766;28;20333;-71
2022/10/10 05:50:49;;;;;;;14.00;12.70;;;9.10;99.90;;;;;;5030427;28;20278;-72
2022/10/10 05:53:16;;;;;;;15.07;13.83;;;9.10;99.90;;;;;;5030444;28;20183;-70
2022/10/10 05:55:43;;;;;;;21.60;19.93;;;9.10;99.90;;;;;;5030659;28;20300;-71
2022/10/10 05:58:09;;;;;;;32.30;30.00;;;9.20;99.90;;;;;;5031400;28;20198;-70
2022/10/10 06:00:35;;;;;;;42.97;39.97;;;9.20;99.90;;;;;;5029698;28;20198;-72
2022/10/10 06:03:01;;;;;;;35.00;32.70;;;9.30;99.90;;;;;;5028912;28;20182;-71
2022/10/10 06:05:27;;;;;;;16.43;15.17;;;9.30;99.90;;;;;;5030251;28;20218;-71
2022/10/10 06:07:53;;;;;;;18.13;11.77;;;9.30;99.90;;;;;;5029460;28;20182;-71
2022/10/10 06:10:19;;;;;;;12.83;10.63;;;9.40;99.90;;;;;;5034831;28;20178;-72
2022/10/10 06:12:45;;;;;;;13.63;10.47;;;9.40;99.90;;;;;;5048941;28;20183;-71
2022/10/10 06:15:10;;;;;;;11.63;10.50;;;9.40;99.90;;;;;;5050579;28;20206;-71
2022/10/10 06:17:36;;;;;;;12.67;11.30;;;9.40;99.90;;;;;;5049638;28;20186;-71
2022/10/10 06:20:03;;;;;;;11.97;10.27;;;9.40;99.90;;;;;;5029687;28;20264;-71
2022/10/10 06:22:29;;;;;;;12.90;11.57;;;9.40;99.90;;;;;;5030070;28;20710;-74
2022/10/10 06:24:54;;;;;;;37.63;19.53;;;9.50;99.90;;;;;;5033019;28;20210;-74
2022/10/10 06:27:20;;;;;;;55.70;26.63;;;9.50;99.90;;;;;;5032598;28;20211;-75
2022/10/10 06:29:46;;;;;;;30.50;19.10;;;9.50;99.90;;;;;;5031935;28;20179;-75
2022/10/10 06:32:12;;;;;;;43.47;23.90;;;9.50;99.90;;;;;;5027438;28;20242;-74
2022/10/10 06:34:37;;;;;;;26.13;16.77;;;9.50;99.90;;;;;;5012286;28;20200;-74
2022/10/10 06:37:03;;;;;;;23.03;16.17;;;9.60;99.90;;;;;;5011055;28;20187;-74
2022/10/10 06:39:29;;;;;;;29.67;16.37;;;9.70;99.90;;;;;;5026974;28;20377;-74
2022/10/10 06:41:55;;;;;;;32.37;18.27;;;9.80;99.90;;;;;;5032401;28;20175;-74
2022/10/10 06:44:21;;;;;;;21.93;14.73;;;9.90;99.90;;;;;;5032225;28;20195;-74
2022/10/10 06:46:46;;;;;;;18.97;15.87;;;10.10;99.90;;;;;;5048241;28;20185;-75
2022/10/10 06:49:12;;;;;;;28.23;26.00;;;10.20;99.90;;;;;;5039521;28;20218;-75
2022/10/10 06:51:39;;;;;;;74.10;69.80;;;10.30;99.90;;;;;;5032378;28;20210;-75
2022/10/10 06:54:04;;;;;;;30.67;28.63;;;10.50;99.90;;;;;;5034259;28;20211;-75
2022/10/10 06:56:31;;;;;;;26.43;24.40;;;10.70;99.90;;;;;;5034676;28;20187;-75
2022/10/10 06:58:56;;;;;;;51.77;48.50;;;10.80;99.90;;;;;;5021211;28;20191;-75
2022/10/10 07:01:24;;;;;;;39.77;36.67;;;11.00;99.90;;;;;;5024734;28;20187;-74
2022/10/10 07:03:50;;;;;;;18.90;17.00;;;11.10;99.90;;;;;;5033731;28;20213;-75
2022/10/10 07:06:17;;;;;;;14.60;13.30;;;11.20;99.90;;;;;;5044636;28;20179;-73
2022/10/10 07:08:43;;;;;;;12.83;11.73;;;11.30;99.90;;;;;;5039150;28;20171;-72
2022/10/10 07:11:09;;;;;;;15.47;14.10;;;11.40;99.90;;;;;;5038402;28;20181;-73
2022/10/10 07:13:36;;;;;;;28.57;26.57;;;11.60;99.90;;;;;;5051112;28;20190;-71
2022/10/10 07:16:03;;;;;;;35.27;33.13;;;11.70;99.90;;;;;;5052623;28;20193;-71
2022/10/10 07:18:30;;;;;;;34.90;32.80;;;12.00;99.90;;;;;;5031646;28;20194;-71
2022/10/10 07:21:00;;;;;;;17.70;16.10;;;12.20;99.90;;;;;;5031211;28;20298;-72
2022/10/10 07:23:27;;;;;;;48.67;45.40;;;12.30;99.90;;;;;;5030997;28;20181;-71
2022/10/10 07:26:00;;;;;;;62.67;58.77;;;12.30;99.90;;;;;;5021690;28;20535;-73
2022/10/10 07:28:25;;;;;;;56.77;53.60;;;12.30;99.90;;;;;;5030271;28;20600;-73
2022/10/10 07:30:59;;;;;;;45.83;43.00;;;12.40;99.90;;;;;;5032302;28;20183;-73
2022/10/10 07:33:25;;;;;;;41.93;39.43;;;12.30;99.90;;;;;;5031280;28;20187;-73
2022/10/10 07:35:54;;;;;;;39.40;36.93;;;12.20;99.90;;;;;;5029839;28;20649;-73
2022/10/10 07:38:19;;;;;;;32.30;30.20;;;12.30;99.90;;;;;;5031738;28;20563;-74
2022/10/10 07:40:45;;;;;;;43.67;40.97;;;12.30;99.90;;;;;;5031149;28;20213;-74
2022/10/10 07:43:12;;;;;;;55.50;52.03;;;12.30;99.90;;;;;;5032350;28;20182;-73
2022/10/10 07:45:38;;;;;;;35.40;33.17;;;12.50;99.90;;;;;;5032497;28;20242;-75
2022/10/10 07:48:04;;;;;;;22.77;21.03;;;12.70;99.90;;;;;;5031668;28;20179;-74
2022/10/10 07:50:30;;;;;;;25.27;23.00;;;12.80;99.90;;;;;;5032130;28;20270;-76
2022/10/10 07:52:56;;;;;;;20.00;18.47;;;12.90;99.90;;;;;;5031284;28;20186;-74
2022/10/10 07:55:21;;;;;;;15.03;13.77;;;13.20;99.90;;;;;;5030774;28;20198;-75
2022/10/10 07:57:47;;;;;;;38.17;35.53;;;13.60;99.90;;;;;;5030200;28;20183;-74
2022/10/10 08:00:34;;;;;;;19.23;17.60;;;14.00;99.90;;;;;;5030801;28;20269;-75
2022/10/10 08:03:00;;;;;;;14.27;13.17;;;14.20;99.90;;;;;;5030391;28;20190;-74
2022/10/10 08:05:26;;;;;;;13.77;11.10;;;14.50;99.90;;;;;;5031693;28;20212;-73
2022/10/10 08:07:52;;;;;;;13.93;12.73;;;15.10;99.90;;;;;;5034915;28;20179;-74
2022/10/10 08:10:18;;;;;;;17.47;16.47;;;15.50;99.90;;;;;;5025624;28;20233;-74
2022/10/10 08:12:44;;;;;;;18.17;16.97;;;15.50;99.90;;;;;;5013904;28;20566;-74
2022/10/10 08:15:10;;;;;;;19.83;18.53;;;15.60;99.90;;;;;;5032360;28;20211;-73
2022/10/10 08:17:36;;;;;;;15.97;14.67;;;15.50;99.90;;;;;;5030164;28;20642;-73
2022/10/10 08:20:03;;;;;;;11.47;10.67;;;15.60;99.90;;;;;;5025397;28;20219;-73
2022/10/10 08:22:29;;;;;;;16.90;15.47;;;15.40;99.90;;;;;;5009370;28;20180;-74
2022/10/10 08:24:55;;;;;;;20.97;19.33;;;15.30;99.90;;;;;;5071040;22;20709;-80
2022/10/10 08:27:21;;;;;;;21.10;19.57;;;15.40;99.90;;;;;;5075661;28;20621;-79
2022/10/10 08:29:46;;;;;;;17.73;16.67;;;15.70;99.90;;;;;;5074031;28;20220;-80
2022/10/10 08:32:13;;;;;;;36.93;34.83;;;16.10;99.90;;;;;;5075760;28;20185;-82
2022/10/10 08:34:39;;;;;;;23.00;21.47;;;16.30;99.90;;;;;;5061994;28;20202;-79
2022/10/10 08:37:04;;;;;;;15.27;14.00;;;16.50;99.90;;;;;;5064012;28;20273;-79
2022/10/10 08:39:31;;;;;;;13.53;12.27;;;16.50;99.90;;;;;;5059959;28;20225;-80
2022/10/10 08:41:59;;;;;;;12.97;11.87;;;16.50;99.90;;;;;;5055104;28;20716;-79
2022/10/10 08:44:43;;;;;;;11.03;9.93;;;16.50;99.90;;;;;;5067721;28;20201;-80
2022/10/10 08:47:08;;;;;;;12.50;10.17;;;16.40;99.90;;;;;;5073936;28;20189;-80
2022/10/10 08:49:44;;;;;;;11.57;10.33;;;16.20;99.90;;;;;;5075543;28;20185;-81
2022/10/10 08:52:18;;;;;;;11.40;10.20;;;16.20;99.90;;;;;;5077248;28;20298;-80
2022/10/10 08:54:46;;;;;;;11.43;10.37;;;16.30;99.90;;;;;;5074432;28;20216;-81
2022/10/10 08:57:50;;;;;;;11.80;10.70;;;16.40;99.90;;;;;;5076582;28;20173;-78
2022/10/10 09:00:21;;;;;;;12.57;10.93;;;16.50;99.90;;;;;;5075513;28;20217;-80
2022/10/10 09:02:52;;;;;;;11.33;9.90;;;16.70;99.90;;;;;;5074074;28;20631;-80
2022/10/10 09:05:47;;;;;;;12.60;9.40;;;16.80;99.90;;;;;;5090007;28;20229;-80
2022/10/10 09:08:22;;;;;;;10.63;9.37;;;17.00;99.90;;;;;;5037386;28;20761;-79
2022/10/10 09:11:19;;;;;;;9.80;8.90;;;16.90;99.90;;;;;;5071572;28;20606;-80
2022/10/10 09:14:06;;;;;;;9.83;8.87;;;16.90;99.90;;;;;;5078216;28;20181;-78
2022/10/10 09:16:39;;;;;;;13.47;12.07;;;17.00;99.90;;;;;;5091935;28;20211;-78
2022/10/10 09:19:22;;;;;;;11.67;10.77;;;17.00;99.90;;;;;;5085010;28;20706;-80
2022/10/10 09:21:50;;;;;;;14.60;13.37;;;17.10;99.90;;;;;;5070293;28;20178;-80
2022/10/10 09:24:22;;;;;;;18.63;17.20;;;17.30;99.90;;;;;;5072410;28;20244;-80
2022/10/10 09:27:01;;;;;;;15.03;13.70;;;17.50;99.90;;;;;;5072927;28;20260;-80
2022/10/10 09:29:33;;;;;;;25.93;24.27;;;17.70;99.90;;;;;;5074735;28;20176;-80
2022/10/10 09:32:17;;;;;;;27.40;25.43;;;18.10;99.90;;;;;;5072931;28;20637;-79
2022/10/10 09:34:46;;;;;;;26.43;24.10;;;18.40;99.90;;;;;;5073417;28;20212;-79
2022/10/10 09:37:19;;;;;;;30.20;27.53;;;18.70;99.90;;;;;;5077051;28;20249;-78
2022/10/10 09:39:57;;;;;;;36.23;33.87;;;18.60;99.90;;;;;;5072529;28;20213;-80
2022/10/10 09:42:32;;;;;;;17.90;16.67;;;18.50;99.90;;;;;;5065274;28;20213;-80
2022/10/10 09:44:58;;;;;;;34.73;32.50;;;18.30;99.90;;;;;;5067566;28;20205;-80
2022/10/10 09:47:24;;;;;;;28.43;26.77;;;18.20;99.90;;;;;;5073769;28;20173;-80
2022/10/10 09:49:50;;;;;;;14.57;13.47;;;18.40;99.90;;;;;;5073912;28;20181;-79
2022/10/10 09:52:27;;;;;;;11.97;11.00;;;18.90;99.90;;;;;;5071984;28;20189;-81
2022/10/10 09:55:01;;;;;;;10.97;9.57;;;18.90;99.90;;;;;;5071490;28;20205;-80
2022/10/10 09:57:39;;;;;;;11.40;10.53;;;18.90;99.90;;;;;;5072961;28;20182;-81
2022/10/10 10:00:34;;;;;;;12.13;10.93;;;19.00;99.90;;;;;;5077154;28;20233;-79
2022/10/10 10:03:10;;;;;;;14.03;12.87;;;18.70;99.90;;;;;;5074847;28;20190;-80
2022/10/10 10:05:36;;;;;;;15.93;10.37;;;18.70;99.90;;;;;;5082098;28;20656;-79
2022/10/10 10:08:02;;;;;;;12.07;10.97;;;18.40;99.90;;;;;;5078532;28;20600;-79
2022/10/10 10:10:29;;;;;;;11.27;10.17;;;18.30;99.90;;;;;;5077818;28;20186;-79
2022/10/10 10:12:56;;;;;;;10.83;9.43;;;18.20;99.90;;;;;;5075586;28;20189;-79
2022/10/10 10:15:25;;;;;;;9.23;8.33;;;18.20;99.90;;;;;;5074556;28;20674;-80
2022/10/10 10:18:16;;;;;;;11.07;9.60;;;18.30;99.90;;;;;;5074650;28;20642;-83
2022/10/10 10:20:44;;;;;;;11.63;10.60;;;18.30;99.90;;;;;;5072996;28;20206;-75
2022/10/10 10:23:24;;;;;;;10.23;9.23;;;18.50;99.90;;;;;;5074036;28;20181;-75
2022/10/10 10:25:58;;;;;;;9.10;8.20;;;18.70;99.90;;;;;;5053966;28;20288;-74
2022/10/10 10:28:24;;;;;;;9.90;9.03;;;19.00;99.90;;;;;;5053631;28;20229;-75
2022/10/10 10:30:54;;;;;;;9.67;8.67;;;19.20;99.90;;;;;;5052703;28;20182;-75
2022/10/10 10:33:53;;;;;;;16.23;14.93;;;19.50;99.90;;;;;;5054427;28;20186;-74
2022/10/10 10:36:51;;;;;;;17.67;16.30;;;20.00;99.90;;;;;;5074135;28;20216;-74
2022/10/10 10:39:28;;;;;;;47.43;44.90;;;20.10;99.90;;;;;;5072409;28;20205;-74
2022/10/10 10:42:39;;;;;;;48.70;45.93;;;20.30;99.90;;;;;;5073634;28;20208;-75
2022/10/10 10:45:08;;;;;;;58.90;55.37;;;20.20;99.90;;;;;;5073045;28;20229;-74
2022/10/10 10:47:51;;;;;;;53.53;50.60;;;20.00;99.90;;;;;;5072768;28;20226;-74
2022/10/10 10:50:23;;;;;;;50.80;47.60;;;20.00;99.90;;;;;;5070455;28;20239;-74
2022/10/10 10:53:17;;;;;;;46.00;43.33;;;20.20;99.90;;;;;;5087070;28;20197;-75
2022/10/10 10:56:20;;;;;;;55.50;52.10;;;20.30;99.90;;;;;;5074997;28;20260;-74
2022/10/10 10:59:03;;;;;;;54.80;51.63;;;20.70;99.90;;;;;;5071067;28;20181;-74
2022/10/10 11:02:06;;;;;;;36.23;33.50;;;21.00;99.90;;;;;;5071578;28;20215;-74
2022/10/10 11:04:51;;;;;;;18.77;17.58;;;21.60;99.90;;;;;;5072557;28;20193;-80
2022/10/10 11:07:21;;;;;;;18.47;17.27;;;21.40;99.90;;;;;;5074604;28;20193;-74
2022/10/10 11:09:55;;;;;;;17.55;15.98;;;21.30;99.90;;;;;;5072969;28;20178;-75
2022/10/10 11:12:49;;;;;;;27.83;26.33;;;21.10;99.90;;;;;;5069047;28;20181;-74
2022/10/10 11:15:19;;;;;;;15.43;14.48;;;21.40;99.90;;;;;;5070999;28;20209;-74
2022/10/10 11:18:13;;;;;;;25.73;24.40;;;23.40;99.90;;;;;;5087724;28;20186;-75
2022/10/10 11:20:48;;;;;;;20.95;19.65;;;25.00;99.90;;;;;;5088149;28;20202;-75
2022/10/10 11:23:30;;;;;;;35.53;33.30;;;26.00;99.90;;;;;;5072492;28;20268;-75
2022/10/10 11:26:05;;;;;;;13.40;12.70;;;25.70;99.90;;;;;;5051177;28;20690;-75
2022/10/10 11:28:39;;;;;;;8.43;7.85;;;25.20;99.90;;;;;;5051110;28;20244;-76
2022/10/10 11:31:12;;;;;;;15.38;14.43;;;25.20;99.90;;;;;;5052144;28;20261;-76
2022/10/10 11:33:50;;;;;;;92.95;87.93;;;26.00;99.90;;;;;;5053796;28;20193;-77
2022/10/10 11:36:20;;;;;;;85.55;80.53;;;27.00;99.90;;;;;;5072239;28;20661;-74
2022/10/10 11:39:01;;;;;;;62.15;58.75;;;27.70;99.90;;;;;;5071469;28;20178;-74
2022/10/10 11:41:45;;;;;;;16.90;15.45;;;27.40;99.90;;;;;;5068850;28;20190;-74
2022/10/10 11:44:34;;;;;;;7.82;7.35;;;28.20;99.90;;;;;;5071528;28;20284;-74
2022/10/10 11:47:31;;;;;;;5.68;5.03;;;28.60;98.50;;;;;;5069935;28;20223;-74
2022/10/10 11:50:20;;;;;;;7.57;5.35;;;29.50;96.90;;;;;;5071990;28;20189;-74
2022/10/10 11:52:59;;;;;;;6.25;4.95;;;28.70;96.10;;;;;;5061862;28;20221;-74
2022/10/10 11:55:40;;;;;;;5.40;5.07;;;29.10;95.20;;;;;;5071655;28;20294;-74
2022/10/10 11:58:06;;;;;;;5.63;4.90;;;30.00;94.10;;;;;;5071461;28;20185;-74
2022/10/10 12:00:41;;;;;;;9.75;5.20;;;30.30;92.90;;;;;;5071391;28;20217;-74
2022/10/10 12:03:08;;;;;;;5.53;4.47;;;30.50;91.50;;;;;;5070285;28;20189;-74
2022/10/10 12:05:37;;;;;;;5.55;4.82;;;31.20;90.70;;;;;;5069735;28;20201;-74
2022/10/10 12:08:16;;;;;;;6.47;5.10;;;31.40;89.50;;;;;;5067755;28;20181;-74
2022/10/10 12:10:48;;;;;;;6.60;5.18;;;31.00;88.40;;;;;;5061781;28;20196;-76
2022/10/10 12:13:34;;;;;;;5.82;5.18;;;30.90;87.60;;;;;;5068866;28;20722;-74
2022/10/10 12:16:16;;;;;;;6.82;5.43;;;30.20;88.80;;;;;;5070112;28;20600;-74
2022/10/10 12:18:59;;;;;;;5.75;5.07;;;30.50;86.80;;;;;;5069880;28;20664;-74
2022/10/10 12:21:28;;;;;;;8.90;5.82;;;30.20;87.70;;;;;;5070979;28;20185;-74
2022/10/10 12:24:12;;;;;;;6.25;4.95;;;31.10;85.40;;;;;;5070078;28;20177;-75
2022/10/10 12:26:54;;;;;;;7.03;6.20;;;31.30;83.20;;;;;;5070570;28;20181;-75
2022/10/10 12:29:41;;;;;;;6.53;6.10;;;31.40;81.80;;;;;;5071411;28;20192;-74
2022/10/10 12:32:13;;;;;;;11.57;9.52;;;31.50;80.60;;;;;;5089351;28;20177;-74
2022/10/10 12:34:54;;;;;;;25.17;23.65;;;32.10;79.70;;;;;;5073572;28;20784;-74
2022/10/10 12:37:34;;;;;;;83.32;78.70;;;31.80;77.40;;;;;;5070835;28;20216;-74
2022/10/10 12:40:06;;;;;;;41.78;39.35;;;31.90;74.10;;;;;;5070420;28;20291;-75
2022/10/10 12:42:47;;;;;;;61.80;58.50;;;31.60;77.00;;;;;;5069670;28;20181;-75
2022/10/10 12:45:28;;;;;;;52.22;49.30;;;31.90;74.80;;;;;;5050732;28;20687;-74
2022/10/10 12:48:04;;;;;;;33.75;30.98;;;31.20;75.60;;;;;;5050206;28;20184;-74
2022/10/10 12:50:34;;;;;;;35.90;33.75;;;30.80;76.20;;;;;;5049262;28;20193;-75
2022/10/10 12:53:04;;;;;;;66.78;62.95;;;31.30;75.60;;;;;;5054089;28;20173;-74
2022/10/10 12:55:50;;;;;;;62.88;59.15;;;31.50;74.40;;;;;;5070491;28;20193;-74
2022/10/10 12:58:20;;;;;;;76.35;72.25;;;31.60;75.00;;;;;;5069344;28;20232;-75